createdAt,value
2017-11-04T00:01:36.374Z,22.70
2017-11-04T00:04:06.709Z,20.90
2017-11-04T00:06:36.341Z,22.43
2017-11-04T00:09:05.971Z,22.77
2017-11-04T00:11:35.929Z,24.23
2017-11-04T00:14:05.099Z,25.20
2017-11-04T00:16:35.669Z,23.97
2017-11-04T00:19:05.926Z,23.57
2017-11-04T00:21:35.498Z,23.07
2017-11-04T00:24:04.455Z,21.03
2017-11-04T00:26:33.676Z,23.10
2017-11-04T00:29:03.165Z,23.27
2017-11-04T00:31:32.788Z,22.30
2017-11-04T00:34:02.296Z,23.43
2017-11-04T00:36:31.380Z,23.63
2017-11-04T00:38:59.937Z,24.03
2017-11-04T00:41:29.162Z,22.60
2017-11-04T00:43:59.068Z,23.33
2017-11-04T00:46:29.024Z,21.97
2017-11-04T00:48:59.221Z,24.90
2017-11-04T00:51:29.452Z,23.23
2017-11-04T00:53:58.844Z,22.60
2017-11-04T00:56:28.050Z,22.77
2017-11-04T00:58:58.866Z,22.23
2017-11-04T01:01:28.254Z,22.57
2017-11-04T01:03:57.837Z,23.03
2017-11-04T01:06:27.997Z,21.90
2017-11-04T01:08:58.098Z,22.97
2017-11-04T01:11:27.331Z,21.57
2017-11-04T01:13:56.950Z,23.00
2017-11-04T01:16:26.609Z,24.37
2017-11-04T01:18:55.930Z,22.37
2017-11-04T01:21:24.668Z,23.93
2017-11-04T01:23:53.314Z,24.17
2017-11-04T01:26:22.727Z,24.30
2017-11-04T01:28:51.618Z,23.37
2017-11-04T01:31:20.688Z,23.53
2017-11-04T01:33:49.606Z,22.20
2017-11-04T01:36:19.045Z,26.50
2017-11-04T01:38:49.154Z,23.03
2017-11-04T01:41:18.837Z,35.70
2017-11-04T01:43:47.687Z,33.60
2017-11-04T01:46:16.776Z,27.87
2017-11-04T01:48:46.991Z,28.20
2017-11-04T01:51:16.033Z,26.37
2017-11-04T01:53:44.666Z,24.60
2017-11-04T01:56:14.474Z,24.20
2017-11-04T01:58:42.754Z,23.67
2017-11-04T02:01:12.130Z,23.10
2017-11-04T02:03:41.278Z,22.17
2017-11-04T02:06:11.249Z,24.10
2017-11-04T02:08:39.817Z,24.10
2017-11-04T02:11:09.354Z,23.10
2017-11-04T02:13:38.139Z,22.90
2017-11-04T02:16:06.809Z,22.87
2017-11-04T02:18:36.618Z,22.83
2017-11-04T02:21:05.747Z,21.67
2017-11-04T02:23:34.632Z,22.57
2017-11-04T02:26:03.863Z,20.40
2017-11-04T02:28:33.056Z,21.40
2017-11-04T02:31:02.092Z,21.83
2017-11-04T02:33:31.565Z,21.03
2017-11-04T02:36:00.700Z,20.80
2017-11-04T02:38:29.399Z,20.93
2017-11-04T02:40:58.166Z,21.80
2017-11-04T02:43:27.860Z,22.37
2017-11-04T02:45:56.891Z,21.67
2017-11-04T02:48:26.280Z,22.00
2017-11-04T02:50:55.758Z,21.60
2017-11-04T02:53:24.976Z,19.90
2017-11-04T02:55:53.420Z,22.73
2017-11-04T02:58:22.184Z,20.30
2017-11-04T03:00:50.820Z,22.63
2017-11-04T03:03:19.919Z,21.93
2017-11-04T03:05:49.896Z,22.17
2017-11-04T03:08:19.256Z,21.07
2017-11-04T03:10:48.593Z,21.00
2017-11-04T03:13:18.384Z,20.23
2017-11-04T03:15:46.984Z,19.70
2017-11-04T03:18:16.247Z,20.50
2017-11-04T03:20:45.545Z,21.80
2017-11-04T03:23:15.206Z,21.40
2017-11-04T03:25:44.865Z,20.10
2017-11-04T03:28:14.961Z,20.40
2017-11-04T03:30:43.589Z,21.57
2017-11-04T03:33:13.327Z,18.63
2017-11-04T03:35:42.198Z,17.60
2017-11-04T03:38:12.110Z,18.40
2017-11-04T03:40:41.156Z,20.37
2017-11-04T03:43:10.486Z,18.43
2017-11-04T03:45:39.338Z,18.20
2017-11-04T03:48:08.434Z,18.73
2017-11-04T03:50:37.484Z,17.30
2017-11-04T03:53:06.779Z,17.77
2017-11-04T03:55:35.270Z,17.57
2017-11-04T03:58:04.448Z,18.73
2017-11-04T04:00:34.559Z,15.53
2017-11-04T04:03:03.480Z,17.87
2017-11-04T04:05:34.677Z,18.07
2017-11-04T04:08:03.708Z,17.50
2017-11-04T04:10:33.296Z,17.63
2017-11-04T04:13:04.436Z,18.80
2017-11-04T04:15:32.969Z,18.00
2017-11-04T04:18:01.411Z,18.40
2017-11-04T04:20:30.732Z,18.80
2017-11-04T04:22:59.948Z,18.13
2017-11-04T04:25:29.272Z,18.67
2017-11-04T04:27:58.003Z,20.00
2017-11-04T04:30:27.131Z,20.97
2017-11-04T04:32:56.519Z,19.10
2017-11-04T04:35:25.317Z,19.50
2017-11-04T04:37:54.071Z,18.60
2017-11-04T04:40:23.036Z,20.53
2017-11-04T04:42:52.543Z,19.43
2017-11-04T04:45:22.459Z,19.90
2017-11-04T04:47:50.913Z,19.90
2017-11-04T04:50:21.197Z,18.40
2017-11-04T04:52:50.468Z,18.23
2017-11-04T04:55:19.604Z,17.97
2017-11-04T04:57:48.697Z,18.90
2017-11-04T05:00:17.618Z,19.13
2017-11-04T05:02:46.880Z,18.43
2017-11-04T05:05:17.220Z,18.43
2017-11-04T05:07:46.480Z,18.70
2017-11-04T05:10:16.224Z,18.80
2017-11-04T05:12:44.757Z,19.27
2017-11-04T05:15:14.347Z,16.80
2017-11-04T05:17:43.445Z,18.73
2017-11-04T05:20:12.802Z,17.73
2017-11-04T05:22:41.941Z,17.90
2017-11-04T05:25:12.296Z,18.47
2017-11-04T05:27:41.424Z,17.63
2017-11-04T05:30:10.690Z,19.43
2017-11-04T05:32:40.283Z,19.07
2017-11-04T05:35:09.574Z,19.87
2017-11-04T05:37:38.394Z,18.57
2017-11-04T05:40:09.079Z,19.90
2017-11-04T05:42:38.333Z,17.43
2017-11-04T05:45:07.232Z,19.57
2017-11-04T05:47:36.311Z,19.37
2017-11-04T05:50:06.223Z,20.67
2017-11-04T05:52:38.258Z,18.83
2017-11-04T05:55:07.615Z,19.20
2017-11-04T05:57:36.955Z,18.50
2017-11-04T06:00:05.912Z,18.70
2017-11-04T06:02:34.897Z,19.77
2017-11-04T06:05:05.112Z,18.47
2017-11-04T06:07:36.226Z,18.27
2017-11-04T06:10:05.691Z,19.10
2017-11-04T06:12:35.014Z,19.23
2017-11-04T06:15:04.638Z,21.33
2017-11-04T06:17:33.886Z,20.07
2017-11-04T06:20:03.492Z,18.30
2017-11-04T06:22:32.292Z,18.13
2017-11-04T06:25:01.925Z,19.83
2017-11-04T06:27:30.361Z,18.67
2017-11-04T06:29:59.424Z,18.13
2017-11-04T06:32:28.694Z,18.57
2017-11-04T06:34:58.231Z,19.60
2017-11-04T06:37:27.986Z,19.17
2017-11-04T06:39:58.431Z,18.90
2017-11-04T06:42:27.933Z,19.80
2017-11-04T06:44:57.085Z,19.47
2017-11-04T06:47:25.839Z,19.87
2017-11-04T06:49:55.220Z,20.67
2017-11-04T06:52:24.123Z,19.60
2017-11-04T06:54:53.153Z,21.50
2017-11-04T06:57:21.322Z,17.53
2017-11-04T06:59:50.840Z,20.20
2017-11-04T07:02:20.698Z,20.23
2017-11-04T07:04:51.186Z,20.43
2017-11-04T07:07:19.975Z,19.80
2017-11-04T07:09:49.521Z,20.83
2017-11-04T07:12:19.381Z,18.83
2017-11-04T07:14:49.184Z,20.63
2017-11-04T07:17:18.598Z,19.37
2017-11-04T07:19:47.473Z,20.83
2017-11-04T07:22:17.896Z,20.27
2017-11-04T07:24:47.339Z,19.83
2017-11-04T07:27:17.038Z,21.40
2017-11-04T07:29:46.593Z,20.40
2017-11-04T07:32:15.155Z,21.93
2017-11-04T07:34:43.785Z,21.70
2017-11-04T07:37:13.433Z,21.60
2017-11-04T07:39:43.043Z,21.60
2017-11-04T07:42:12.139Z,22.17
2017-11-04T07:44:41.064Z,23.10
2017-11-04T07:47:09.188Z,20.93
2017-11-04T07:49:38.430Z,21.77
2017-11-04T07:52:09.863Z,21.37
2017-11-04T07:54:38.712Z,22.63
2017-11-04T07:57:07.050Z,22.20
2017-11-04T07:59:35.923Z,23.20
2017-11-04T08:02:05.029Z,24.07
2017-11-04T08:04:33.863Z,22.43
2017-11-04T08:07:02.457Z,24.23
2017-11-04T08:09:31.502Z,23.50
2017-11-04T08:12:01.151Z,21.57
2017-11-04T08:14:30.295Z,25.87
2017-11-04T08:16:59.725Z,25.40
2017-11-04T08:19:28.848Z,23.90
2017-11-04T08:21:57.893Z,23.33
2017-11-04T08:24:26.908Z,25.10
2017-11-04T08:26:56.149Z,26.40
2017-11-04T08:29:24.620Z,26.67
2017-11-04T08:31:53.177Z,24.40
2017-11-04T08:34:22.821Z,26.20
2017-11-04T08:36:51.811Z,26.60
2017-11-04T08:39:20.990Z,28.30
2017-11-04T08:41:50.646Z,30.20
2017-11-04T08:44:19.309Z,26.47
2017-11-04T08:46:49.140Z,27.47
2017-11-04T08:49:18.097Z,26.37
2017-11-04T08:51:47.328Z,30.20
2017-11-04T08:54:16.331Z,28.60
2017-11-04T08:56:45.998Z,30.40
2017-11-04T08:59:14.425Z,30.70
2017-11-04T09:01:44.986Z,28.43
2017-11-04T09:04:15.390Z,31.20
2017-11-04T09:06:43.984Z,31.10
2017-11-04T09:09:12.957Z,29.47
2017-11-04T09:11:41.815Z,30.57
2017-11-04T09:14:10.868Z,28.43
2017-11-04T09:16:39.179Z,29.07
2017-11-04T09:19:08.111Z,29.33
2017-11-04T09:21:37.782Z,32.60
2017-11-04T09:24:06.147Z,30.30
2017-11-04T09:26:35.945Z,31.13
2017-11-04T09:29:04.763Z,34.13
2017-11-04T09:31:33.946Z,32.10
2017-11-04T09:34:03.736Z,33.90
2017-11-04T09:36:32.642Z,33.20
2017-11-04T09:39:01.890Z,30.93
2017-11-04T09:41:30.409Z,32.60
2017-11-04T09:44:00.344Z,32.20
2017-11-04T09:46:29.904Z,30.87
2017-11-04T09:48:58.410Z,34.60
2017-11-04T09:51:27.967Z,34.00
2017-11-04T09:53:57.401Z,32.53
2017-11-04T09:56:26.873Z,32.10
2017-11-04T09:58:56.377Z,36.20
2017-11-04T10:01:25.464Z,35.43
2017-11-04T10:03:55.333Z,36.47
2017-11-04T10:06:24.806Z,34.47
2017-11-04T10:08:53.429Z,33.03
2017-11-04T10:11:22.298Z,35.40
2017-11-04T10:13:52.261Z,33.13
2017-11-04T10:16:23.028Z,35.50
2017-11-04T10:18:53.634Z,33.23
2017-11-04T10:21:23.307Z,35.40
2017-11-04T10:23:53.439Z,37.33
2017-11-04T10:26:22.538Z,33.93
2017-11-04T10:28:51.365Z,34.00
2017-11-04T10:31:20.404Z,35.40
2017-11-04T10:33:49.097Z,34.00
2017-11-04T10:36:17.430Z,34.30
2017-11-04T10:38:47.352Z,33.90
2017-11-04T10:41:16.150Z,37.07
2017-11-04T10:43:44.579Z,33.40
2017-11-04T10:46:13.453Z,33.70
2017-11-04T10:48:42.554Z,34.33
2017-11-04T10:51:11.997Z,33.30
2017-11-04T10:53:40.992Z,32.77
2017-11-04T10:56:09.994Z,33.80
2017-11-04T10:58:38.902Z,34.00
2017-11-04T11:01:08.935Z,32.33
2017-11-04T11:03:37.519Z,34.13
2017-11-04T11:06:06.394Z,32.87
2017-11-04T11:08:35.934Z,31.67
2017-11-04T11:11:05.451Z,30.50
2017-11-04T11:13:34.468Z,32.77
2017-11-04T11:16:03.944Z,31.20
2017-11-04T11:18:32.990Z,33.60
2017-11-04T11:21:02.892Z,33.30
2017-11-04T11:23:33.669Z,30.03
2017-11-04T11:26:03.514Z,29.23
2017-11-04T11:28:31.900Z,30.97
2017-11-04T11:31:01.877Z,30.10
2017-11-04T11:33:31.643Z,29.17
2017-11-04T11:36:00.859Z,30.53
2017-11-04T11:38:30.097Z,31.70
2017-11-04T11:40:59.131Z,28.70
2017-11-04T11:43:28.783Z,28.30
2017-11-04T11:45:59.198Z,29.20
2017-11-04T11:48:28.395Z,29.27
2017-11-04T11:50:58.112Z,32.00
2017-11-04T11:53:28.009Z,28.00
2017-11-04T11:55:57.349Z,28.20
2017-11-04T11:58:26.602Z,29.30
2017-11-04T12:00:56.299Z,29.57
2017-11-04T12:03:25.206Z,27.97
2017-11-04T12:05:54.361Z,30.10
2017-11-04T12:08:23.391Z,28.63
2017-11-04T12:10:52.075Z,28.20
2017-11-04T12:13:21.058Z,29.67
2017-11-04T12:15:50.511Z,28.93
2017-11-04T12:18:20.354Z,28.77
2017-11-04T12:20:49.836Z,27.47
2017-11-04T12:23:18.697Z,30.70
2017-11-04T12:25:47.759Z,30.40
2017-11-04T12:28:20.036Z,30.73
2017-11-04T12:30:49.558Z,28.40
2017-11-04T12:33:18.427Z,31.80
2017-11-04T12:35:47.399Z,31.17
2017-11-04T12:38:15.659Z,29.57
2017-11-04T12:40:44.509Z,29.77
2017-11-04T12:43:15.774Z,30.90
2017-11-04T12:45:44.493Z,33.43
2017-11-04T12:48:14.970Z,31.03
2017-11-04T12:50:43.576Z,29.40
2017-11-04T12:53:13.093Z,28.57
2017-11-04T12:55:42.702Z,28.47
2017-11-04T12:58:13.366Z,31.50
2017-11-04T13:00:42.403Z,31.47
2017-11-04T13:03:12.264Z,30.07
2017-11-04T13:05:41.967Z,29.07
2017-11-04T13:08:10.817Z,29.93
2017-11-04T13:10:39.748Z,29.23
2017-11-04T13:13:09.729Z,28.93
2017-11-04T13:15:38.562Z,29.90
2017-11-04T13:18:07.644Z,28.10
2017-11-04T13:20:37.242Z,28.80
2017-11-04T13:23:08.686Z,27.40
2017-11-04T13:25:39.336Z,30.03
2017-11-04T13:28:08.875Z,29.40
2017-11-04T13:30:38.270Z,29.60
2017-11-04T13:33:08.322Z,29.13
2017-11-04T13:35:38.401Z,30.57
2017-11-04T13:38:07.421Z,30.17
2017-11-04T13:40:36.355Z,27.80
2017-11-04T13:43:05.580Z,29.87
2017-11-04T13:45:36.416Z,30.90
2017-11-04T13:48:06.471Z,28.27
2017-11-04T13:50:36.134Z,29.70
2017-11-04T13:53:05.299Z,30.20
2017-11-04T13:55:34.488Z,28.27
2017-11-04T13:58:06.458Z,30.23
2017-11-04T14:00:36.516Z,31.30
2017-11-04T14:03:06.129Z,32.33
2017-11-04T14:05:36.155Z,28.97
2017-11-04T14:08:04.474Z,28.53
2017-11-04T14:10:33.881Z,30.90
2017-11-04T14:13:03.320Z,31.80
2017-11-04T14:15:32.814Z,32.73
2017-11-04T14:18:02.870Z,34.47
2017-11-04T14:20:35.384Z,33.47
2017-11-04T14:23:04.816Z,37.47
2017-11-04T14:25:34.814Z,36.07
2017-11-04T14:28:04.039Z,34.20
2017-11-04T14:30:33.615Z,34.90
2017-11-04T14:33:03.367Z,33.10
2017-11-04T14:35:33.774Z,32.47
2017-11-04T14:38:02.878Z,34.07
2017-11-04T14:40:32.328Z,33.13
2017-11-04T14:43:02.012Z,34.10
2017-11-04T14:45:31.483Z,32.00
2017-11-04T14:48:01.045Z,33.17
2017-11-04T14:50:31.199Z,31.53
2017-11-04T14:53:05.615Z,33.43
2017-11-04T14:55:34.440Z,33.03
2017-11-04T14:58:04.144Z,33.07
2017-11-04T15:00:34.595Z,34.63
2017-11-04T15:03:03.153Z,32.37
2017-11-04T15:05:32.606Z,35.37
2017-11-04T15:08:02.686Z,34.57
2017-11-04T15:10:33.590Z,34.40
2017-11-04T15:13:03.493Z,32.30
2017-11-04T15:15:33.097Z,34.10
2017-11-04T15:18:02.040Z,34.40
2017-11-04T15:20:31.551Z,35.30
2017-11-04T15:23:00.586Z,35.77
2017-11-04T15:25:30.469Z,34.17
2017-11-04T15:28:00.562Z,35.10
2017-11-04T15:30:30.268Z,35.70
2017-11-04T15:32:59.856Z,35.67
2017-11-04T15:35:28.813Z,33.53
2017-11-04T15:37:59.129Z,34.43
2017-11-04T15:40:28.656Z,31.57
2017-11-04T15:42:57.515Z,36.13
2017-11-04T15:45:26.571Z,35.00
2017-11-04T15:47:55.642Z,33.60
2017-11-04T15:50:26.465Z,33.03
2017-11-04T15:52:55.065Z,36.33
2017-11-04T15:55:24.026Z,34.37
2017-11-04T15:57:53.146Z,33.00
2017-11-04T16:00:22.017Z,32.57
2017-11-04T16:02:51.033Z,34.03
2017-11-04T16:05:20.875Z,35.73
2017-11-04T16:07:50.392Z,34.93
2017-11-04T16:10:19.759Z,34.33
2017-11-04T16:12:48.432Z,34.77
2017-11-04T16:15:18.524Z,40.80
2017-11-04T16:17:47.683Z,37.10
2017-11-04T16:20:17.136Z,33.83
2017-11-04T16:22:47.308Z,39.03
2017-11-04T16:25:16.790Z,39.57
2017-11-04T16:27:45.966Z,39.23
2017-11-04T16:30:16.169Z,38.30
2017-11-04T16:32:44.915Z,36.53
2017-11-04T16:35:13.627Z,39.03
2017-11-04T16:37:42.624Z,34.60
2017-11-04T16:40:12.342Z,38.50
2017-11-04T16:42:42.273Z,40.47
2017-11-04T16:45:11.819Z,36.87
2017-11-04T16:47:41.358Z,34.70
2017-11-04T16:50:10.438Z,36.60
2017-11-04T16:52:40.220Z,37.27
2017-11-04T16:55:09.487Z,38.90
2017-11-04T16:57:38.066Z,38.43
2017-11-04T17:00:06.967Z,41.20
2017-11-04T17:02:35.970Z,40.50
2017-11-04T17:05:04.384Z,40.13
2017-11-04T17:07:34.360Z,41.30
2017-11-04T17:10:03.575Z,42.30
2017-11-04T17:12:32.439Z,42.90
2017-11-04T17:15:02.276Z,42.27
2017-11-04T17:17:32.791Z,39.93
2017-11-04T17:20:02.356Z,42.43
2017-11-04T17:22:30.996Z,43.97
2017-11-04T17:25:00.316Z,40.93
2017-11-04T17:27:28.878Z,40.67
2017-11-04T17:29:58.070Z,39.00
2017-11-04T17:32:27.697Z,35.77
2017-11-04T17:34:57.481Z,38.07
2017-11-04T17:37:27.214Z,38.90
2017-11-04T17:39:57.757Z,39.67
2017-11-04T17:42:28.586Z,38.60
2017-11-04T17:44:57.481Z,38.37
2017-11-04T17:47:26.641Z,41.80
2017-11-04T17:49:55.347Z,36.23
2017-11-04T17:52:23.953Z,38.30
2017-11-04T17:54:54.613Z,37.60
2017-11-04T17:57:23.912Z,37.50
2017-11-04T17:59:53.525Z,38.33
2017-11-04T18:02:23.203Z,38.23
2017-11-04T18:04:52.245Z,34.20
2017-11-04T18:07:22.159Z,35.23
2017-11-04T18:09:51.344Z,36.60
2017-11-04T18:12:21.142Z,36.07
2017-11-04T18:14:50.866Z,35.33
2017-11-04T18:17:20.762Z,37.00
2017-11-04T18:19:51.294Z,45.37
2017-11-04T18:22:21.880Z,43.90
2017-11-04T18:24:51.613Z,43.63
2017-11-04T18:27:21.038Z,43.83
2017-11-04T18:29:50.680Z,43.53
2017-11-04T18:32:20.495Z,42.57
2017-11-04T18:34:50.136Z,48.37
2017-11-04T18:37:19.396Z,43.80
2017-11-04T18:39:49.386Z,40.23
2017-11-04T18:42:18.371Z,37.40
2017-11-04T18:44:48.448Z,37.97
2017-11-04T18:47:18.067Z,38.10
2017-11-04T18:49:48.049Z,37.40
2017-11-04T18:52:18.196Z,37.10
2017-11-04T18:54:47.724Z,37.00
2017-11-04T18:57:17.781Z,38.50
2017-11-04T18:59:47.676Z,36.50
2017-11-04T19:02:17.504Z,39.93
2017-11-04T19:04:47.454Z,37.57
2017-11-04T19:07:16.901Z,38.83
2017-11-04T19:09:46.377Z,36.33
2017-11-04T19:12:16.305Z,42.27
2017-11-04T19:14:45.508Z,38.90
2017-11-04T19:17:15.118Z,35.70
2017-11-04T19:19:45.212Z,36.80
2017-11-04T19:22:14.071Z,46.10
2017-11-04T19:24:43.815Z,45.10
2017-11-04T19:27:14.206Z,37.77
2017-11-04T19:29:43.623Z,34.60
2017-11-04T19:32:13.929Z,33.60
2017-11-04T19:34:43.384Z,33.80
2017-11-04T19:37:13.300Z,34.20
2017-11-04T19:39:43.232Z,35.63
2017-11-04T19:42:13.627Z,33.43
2017-11-04T19:44:43.078Z,35.53
2017-11-04T19:47:13.228Z,34.37
2017-11-04T19:49:42.853Z,36.00
2017-11-04T19:52:11.738Z,36.70
2017-11-04T19:54:41.401Z,34.87
2017-11-04T19:57:10.118Z,36.60
2017-11-04T19:59:39.184Z,38.10
2017-11-04T20:02:08.651Z,39.23
2017-11-04T20:04:38.702Z,36.30
2017-11-04T20:07:09.292Z,39.27
2017-11-04T20:09:38.535Z,36.17
2017-11-04T20:12:09.495Z,37.87
2017-11-04T20:14:38.840Z,39.00
2017-11-04T20:17:09.200Z,38.50
2017-11-04T20:19:39.772Z,37.30
2017-11-04T20:22:09.503Z,38.40
2017-11-04T20:24:39.060Z,35.97
2017-11-04T20:27:08.774Z,37.00
2017-11-04T20:29:37.805Z,34.00
2017-11-04T20:32:07.445Z,34.77
2017-11-04T20:34:37.143Z,31.80
2017-11-04T20:37:07.311Z,34.57
2017-11-04T20:39:37.763Z,35.83
2017-11-04T20:42:08.315Z,34.97
2017-11-04T20:44:39.429Z,35.77
2017-11-04T20:47:08.668Z,33.77
2017-11-04T20:49:37.429Z,34.97
2017-11-04T20:52:07.453Z,33.13
2017-11-04T20:54:37.258Z,35.30
2017-11-04T20:57:06.052Z,33.60
2017-11-04T20:59:35.300Z,34.20
2017-11-04T21:02:04.514Z,33.40
2017-11-04T21:04:34.410Z,33.70
2017-11-04T21:07:03.603Z,35.73
2017-11-04T21:09:32.684Z,30.97
2017-11-04T21:12:02.130Z,32.27
2017-11-04T21:14:31.205Z,31.90
2017-11-04T21:16:59.720Z,32.40
2017-11-04T21:19:30.516Z,33.90
2017-11-04T21:21:59.500Z,33.87
2017-11-04T21:24:30.224Z,33.67
2017-11-04T21:26:59.151Z,33.93
2017-11-04T21:29:29.453Z,33.20
2017-11-04T21:31:59.307Z,35.67
2017-11-04T21:34:28.366Z,34.90
2017-11-04T21:36:57.576Z,34.70
2017-11-04T21:39:27.095Z,34.27
2017-11-04T21:41:56.876Z,34.27
2017-11-04T21:44:25.774Z,34.90
2017-11-04T21:46:55.496Z,35.70
2017-11-04T21:49:24.566Z,42.43
2017-11-04T21:51:54.802Z,45.20
2017-11-04T21:54:23.583Z,49.27
2017-11-04T21:56:52.752Z,47.13
2017-11-04T21:59:22.065Z,48.87
2017-11-04T22:01:50.984Z,41.87
2017-11-04T22:04:20.818Z,44.30
2017-11-04T22:06:51.282Z,40.57
2017-11-04T22:09:20.308Z,39.17
2017-11-04T22:11:50.317Z,38.83
2017-11-04T22:14:20.866Z,37.90
2017-11-04T22:16:50.601Z,37.77
2017-11-04T22:19:20.079Z,37.73
2017-11-04T22:21:49.385Z,37.77
2017-11-04T22:24:19.086Z,36.13
2017-11-04T22:26:48.464Z,38.60
2017-11-04T22:29:18.794Z,38.27
2017-11-04T22:31:48.673Z,34.60
2017-11-04T22:34:17.717Z,36.30
2017-11-04T22:36:47.195Z,35.23
2017-11-04T22:39:16.609Z,38.97
2017-11-04T22:41:47.153Z,34.73
2017-11-04T22:44:16.691Z,35.93
2017-11-04T22:46:46.682Z,38.50
2017-11-04T22:49:17.015Z,36.70
2017-11-04T22:51:47.237Z,36.97
2017-11-04T22:54:17.644Z,37.40
2017-11-04T22:56:46.946Z,37.23
2017-11-04T22:59:16.409Z,35.37
2017-11-04T23:01:46.585Z,36.63
2017-11-04T23:04:16.611Z,35.40
2017-11-04T23:06:46.134Z,34.77
2017-11-04T23:09:15.734Z,35.67
2017-11-04T23:11:46.220Z,33.03
2017-11-04T23:14:16.061Z,34.97
2017-11-04T23:16:46.287Z,35.83
2017-11-04T23:19:15.800Z,33.20
2017-11-04T23:21:45.892Z,32.53
2017-11-04T23:24:15.568Z,32.67
2017-11-04T23:26:45.686Z,31.37
2017-11-04T23:29:15.895Z,29.87
2017-11-04T23:31:45.550Z,31.53
2017-11-04T23:34:14.489Z,29.87
2017-11-04T23:36:44.412Z,27.57
2017-11-04T23:39:14.158Z,30.80
2017-11-04T23:41:44.873Z,29.57
2017-11-04T23:44:14.598Z,26.70
2017-11-04T23:46:44.014Z,25.43
2017-11-04T23:49:13.621Z,25.40
2017-11-04T23:51:43.377Z,26.23
2017-11-04T23:54:14.052Z,25.30
2017-11-04T23:56:44.266Z,25.50
2017-11-04T23:59:14.755Z,28.50
